createdAt,value
2023-04-27T00:00:39.281Z,96619.72
2023-04-27T00:02:40.963Z,96619.09
2023-04-27T00:04:42.669Z,96621.78
2023-04-27T00:06:44.303Z,96610.00
2023-04-27T00:08:45.915Z,96615.66
2023-04-27T00:10:48.782Z,96603.88
2023-04-27T00:12:50.235Z,96602.69
2023-04-27T00:14:51.800Z,96603.53
2023-04-27T00:16:53.337Z,96607.19
2023-04-27T00:18:54.852Z,96609.31
2023-04-27T00:20:56.408Z,96610.81
2023-04-27T00:22:57.900Z,96607.53
2023-04-27T00:24:59.363Z,96610.34
2023-04-27T00:27:02.190Z,96607.38
2023-04-27T00:29:03.659Z,96605.72
2023-04-27T00:31:05.389Z,96604.41
2023-04-27T00:33:06.978Z,96606.06
2023-04-27T00:35:09.610Z,96600.75
2023-04-27T00:37:11.080Z,96598.13
2023-04-27T00:39:12.713Z,96593.81
2023-04-27T00:41:14.504Z,96597.16
2023-04-27T00:43:17.333Z,96591.34
2023-04-27T00:45:18.885Z,96593.84
2023-04-27T00:47:20.360Z,96582.59
2023-04-27T00:49:22.293Z,96584.25
2023-04-27T00:51:23.802Z,96578.13
2023-04-27T00:53:25.464Z,96572.66
2023-04-27T00:55:26.977Z,96572.31
2023-04-27T00:57:28.466Z,96572.31
2023-04-27T00:59:31.458Z,96576.47
2023-04-27T01:01:33.293Z,96576.28
2023-04-27T01:03:35.163Z,96574.13
2023-04-27T01:05:37.386Z,96575.97
2023-04-27T01:07:39.225Z,96587.88
2023-04-27T01:09:40.757Z,96582.56
2023-04-27T01:11:42.270Z,96593.50
2023-04-27T01:13:43.925Z,96588.69
2023-04-27T01:15:46.804Z,96588.69
2023-04-27T01:17:48.362Z,96590.84
2023-04-27T01:19:50.059Z,96601.63
2023-04-27T01:21:51.588Z,96593.84
2023-04-27T01:23:54.622Z,96599.13
2023-04-27T01:25:56.092Z,96600.47
2023-04-27T01:27:57.569Z,96596.47
2023-04-27T01:29:59.033Z,96589.19
2023-04-27T01:32:00.679Z,96594.50
2023-04-27T01:34:02.166Z,96574.66
2023-04-27T01:36:04.070Z,96583.91
2023-04-27T01:38:05.645Z,96592.19
2023-04-27T01:40:09.496Z,96583.59
2023-04-27T01:42:11.083Z,96586.38
2023-04-27T01:44:12.812Z,96578.94
2023-04-27T01:46:14.643Z,96576.28
2023-04-27T01:48:16.991Z,96580.91
2023-04-27T01:50:18.700Z,96586.22
2023-04-27T01:52:20.167Z,96586.91
2023-04-27T01:54:21.981Z,96586.56
2023-04-27T01:56:24.855Z,96587.91
2023-04-27T01:58:26.697Z,96591.84
2023-04-27T02:00:28.325Z,96595.97
2023-04-27T02:02:29.940Z,96598.31
2023-04-27T02:04:31.532Z,96596.81
2023-04-27T02:06:33.177Z,96598.97
2023-04-27T02:08:35.035Z,96599.63
2023-04-27T02:10:36.910Z,96606.44
2023-04-27T02:12:39.747Z,96597.81
2023-04-27T02:14:41.266Z,96603.44
2023-04-27T02:16:42.963Z,96605.44
2023-04-27T02:18:44.477Z,96605.94
2023-04-27T02:20:45.982Z,96606.44
2023-04-27T02:22:47.443Z,96608.25
2023-04-27T02:24:48.950Z,96614.38
2023-04-27T02:26:50.436Z,96606.78
2023-04-27T02:28:53.288Z,96610.09
2023-04-27T02:30:55.243Z,96611.41
2023-04-27T02:32:58.089Z,96608.09
2023-04-27T02:34:59.581Z,96608.75
2023-04-27T02:37:01.098Z,96609.59
2023-04-27T02:39:02.668Z,96611.91
2023-04-27T02:41:04.201Z,96612.06
2023-04-27T02:43:05.707Z,96611.06
2023-04-27T02:45:09.500Z,96612.22
2023-04-27T02:47:11.145Z,96609.75
2023-04-27T02:49:12.963Z,96616.69
2023-04-27T02:51:14.841Z,96619.03
2023-04-27T02:53:16.504Z,96612.22
2023-04-27T02:55:18.099Z,96609.75
2023-04-27T02:57:19.896Z,96599.31
2023-04-27T02:59:21.591Z,96616.19
2023-04-27T03:01:24.537Z,96619.84
2023-04-27T03:03:26.234Z,96614.53
2023-04-27T03:05:28.043Z,96614.38
2023-04-27T03:07:29.557Z,96611.91
2023-04-27T03:09:31.020Z,96611.41
2023-04-27T03:11:32.845Z,96616.03
2023-04-27T03:13:34.367Z,96602.78
2023-04-27T03:15:35.868Z,96608.09
2023-04-27T03:17:38.733Z,96611.41
2023-04-27T03:19:40.234Z,96607.09
2023-04-27T03:21:41.740Z,96612.06
2023-04-27T03:23:43.226Z,96621.34
2023-04-27T03:25:44.730Z,96615.38
2023-04-27T03:27:46.293Z,96620.19
2023-04-27T03:29:51.509Z,96611.56
2023-04-27T03:31:53.077Z,96612.91
2023-04-27T03:33:55.950Z,96609.25
2023-04-27T03:35:57.841Z,96613.72
2023-04-27T03:37:59.338Z,96615.38
2023-04-27T03:40:00.833Z,96617.38
2023-04-27T03:42:02.388Z,96613.88
2023-04-27T03:44:04.272Z,96612.72
2023-04-27T03:46:06.045Z,96617.69
2023-04-27T03:48:07.819Z,96598.34
2023-04-27T03:50:10.978Z,96622.66
2023-04-27T03:52:12.696Z,96622.34
2023-04-27T03:54:14.293Z,96602.47
2023-04-27T03:56:16.104Z,96617.69
2023-04-27T03:58:17.594Z,96616.22
2023-04-27T04:00:19.202Z,96619.84
2023-04-27T04:02:20.737Z,96621.34
2023-04-27T04:04:22.529Z,96618.69
2023-04-27T04:06:25.623Z,96622.50
2023-04-27T04:08:27.232Z,96622.34
2023-04-27T04:10:28.822Z,96623.66
2023-04-27T04:12:30.421Z,96622.00
2023-04-27T04:14:31.922Z,96625.66
2023-04-27T04:16:33.809Z,96625.97
2023-04-27T04:18:36.502Z,96623.50
2023-04-27T04:20:37.980Z,96629.28
2023-04-27T04:22:40.839Z,96624.97
2023-04-27T04:24:42.374Z,96617.19
2023-04-27T04:26:43.921Z,96621.34
2023-04-27T04:28:45.398Z,96628.94
2023-04-27T04:30:47.088Z,96638.22
2023-04-27T04:32:48.810Z,96640.88
2023-04-27T04:34:50.374Z,96614.06
2023-04-27T04:36:51.891Z,96634.25
2023-04-27T04:38:54.725Z,96633.59
2023-04-27T04:40:56.231Z,96619.34
2023-04-27T04:42:57.835Z,96636.56
2023-04-27T04:44:59.296Z,96636.56
2023-04-27T04:47:00.818Z,96629.94
2023-04-27T04:49:02.943Z,96635.91
2023-04-27T04:51:05.303Z,96642.84
2023-04-27T04:53:06.766Z,96630.59
2023-04-27T04:55:10.414Z,96640.03
2023-04-27T04:57:11.930Z,96644.19
2023-04-27T04:59:13.526Z,96638.88
2023-04-27T05:01:15.528Z,96634.41
2023-04-27T05:03:17.209Z,96627.97
2023-04-27T05:05:18.804Z,96629.94
2023-04-27T05:07:24.793Z,96637.56
2023-04-27T05:09:26.628Z,96630.28
2023-04-27T05:11:29.463Z,96641.84
2023-04-27T05:13:30.980Z,96635.59
2023-04-27T05:15:32.442Z,96626.78
2023-04-27T05:17:33.995Z,96641.84
2023-04-27T05:19:35.722Z,96638.53
2023-04-27T05:21:37.231Z,96638.53
2023-04-27T05:23:38.692Z,96642.53
2023-04-27T05:25:40.233Z,96651.47
2023-04-27T05:27:43.058Z,96639.19
2023-04-27T05:29:44.551Z,96641.84
2023-04-27T05:31:46.122Z,96642.38
2023-04-27T05:33:47.623Z,96646.19
2023-04-27T05:35:49.102Z,96649.50
2023-04-27T05:37:50.616Z,96651.16
2023-04-27T05:39:52.150Z,96650.81
2023-04-27T05:41:53.667Z,96654.31
2023-04-27T05:43:56.834Z,96655.13
2023-04-27T05:45:58.313Z,96653.81
2023-04-27T05:48:00.028Z,96654.81
2023-04-27T05:50:01.634Z,96660.09
2023-04-27T05:52:03.981Z,96656.41
2023-04-27T05:54:05.541Z,96660.72
2023-04-27T05:56:07.810Z,96661.69
2023-04-27T05:58:09.806Z,96664.16
2023-04-27T06:00:14.413Z,96667.63
2023-04-27T06:02:16.139Z,96670.63
2023-04-27T06:04:18.165Z,96668.97
2023-04-27T06:06:19.726Z,96667.28
2023-04-27T06:08:22.074Z,96674.94
2023-04-27T06:10:23.971Z,96666.94
2023-04-27T06:12:25.477Z,96674.34
2023-04-27T06:14:28.302Z,96674.78
2023-04-27T06:16:31.389Z,96676.38
2023-04-27T06:18:33.102Z,96676.88
2023-04-27T06:20:34.790Z,96680.47
2023-04-27T06:22:36.432Z,96688.91
2023-04-27T06:24:37.989Z,96682.94
2023-04-27T06:26:39.498Z,96677.84
2023-04-27T06:28:40.988Z,96686.59
2023-04-27T06:30:42.573Z,96688.72
2023-04-27T06:32:45.429Z,96695.03
2023-04-27T06:34:47.103Z,96704.50
2023-04-27T06:36:48.626Z,96694.97
2023-04-27T06:38:50.103Z,96701.00
2023-04-27T06:40:52.124Z,96700.13
2023-04-27T06:42:53.610Z,96700.59
2023-04-27T06:44:55.390Z,96699.16
2023-04-27T06:46:56.946Z,96693.19
2023-04-27T06:48:59.807Z,96699.97
2023-04-27T06:51:01.338Z,96693.75
2023-04-27T06:53:02.838Z,96695.31
2023-04-27T06:55:05.106Z,96696.59
2023-04-27T06:57:06.627Z,96674.97
2023-04-27T06:59:08.885Z,96696.22
2023-04-27T07:01:10.395Z,96693.75
2023-04-27T07:03:12.047Z,96689.53
2023-04-27T07:05:15.060Z,96694.06
2023-04-27T07:07:16.905Z,96695.34
2023-04-27T07:09:26.952Z,96692.75
2023-04-27T07:11:29.389Z,96692.03
2023-04-27T07:13:30.906Z,96690.94
2023-04-27T07:15:32.481Z,96699.63
2023-04-27T07:17:34.087Z,96705.25
2023-04-27T07:19:36.809Z,96706.00
2023-04-27T07:21:39.747Z,96703.16
2023-04-27T07:23:41.276Z,96695.72
2023-04-27T07:25:42.809Z,96699.31
2023-04-27T07:27:44.293Z,96695.19
2023-04-27T07:29:45.808Z,96690.25
2023-04-27T07:31:47.282Z,96696.47
2023-04-27T07:33:49.466Z,96699.41
2023-04-27T07:35:50.967Z,96696.00
2023-04-27T07:37:53.939Z,96690.56
2023-04-27T07:39:55.403Z,96690.41
2023-04-27T07:41:56.930Z,96694.44
2023-04-27T07:43:58.380Z,96692.75
2023-04-27T07:45:59.878Z,96695.25
2023-04-27T07:48:01.702Z,96691.44
2023-04-27T07:50:03.658Z,96691.19
2023-04-27T07:52:05.502Z,96689.34
2023-04-27T07:54:08.778Z,96682.63
2023-04-27T07:56:10.582Z,96687.75
2023-04-27T07:58:12.438Z,96676.09
2023-04-27T08:00:14.278Z,96682.59
2023-04-27T08:02:19.752Z,96687.69
2023-04-27T08:04:22.223Z,96674.56
2023-04-27T08:06:24.742Z,96684.72
2023-04-27T08:08:26.595Z,96678.84
2023-04-27T08:10:29.684Z,96679.03
2023-04-27T08:12:32.550Z,96679.28
2023-04-27T08:14:34.416Z,96670.75
2023-04-27T08:16:35.952Z,96674.94
2023-04-27T08:18:37.550Z,96673.06
2023-04-27T08:20:39.035Z,96674.78
2023-04-27T08:22:41.442Z,96666.47
2023-04-27T08:24:42.948Z,96674.84
2023-04-27T08:26:45.823Z,96664.25
2023-04-27T08:28:47.280Z,96661.31
2023-04-27T08:30:48.768Z,96658.41
2023-04-27T08:32:50.312Z,96655.50
2023-04-27T08:34:51.837Z,96654.34
2023-04-27T08:36:53.427Z,96659.09
2023-04-27T08:38:54.912Z,96653.75
2023-04-27T08:40:59.284Z,96653.97
2023-04-27T08:43:03.687Z,96658.00
2023-04-27T08:45:08.047Z,96652.59
2023-04-27T08:47:10.243Z,96614.91
2023-04-27T08:49:12.758Z,96648.75
2023-04-27T08:51:16.604Z,96645.59
2023-04-27T08:53:18.559Z,96653.63
2023-04-27T08:55:20.160Z,96650.66
2023-04-27T08:57:22.087Z,96655.41
2023-04-27T08:59:24.898Z,96644.50
2023-04-27T09:01:26.652Z,96648.81
2023-04-27T09:03:28.250Z,96653.78
2023-04-27T09:05:29.987Z,96647.25
2023-04-27T09:07:31.513Z,96653.81
2023-04-27T09:09:33.136Z,96647.28
2023-04-27T09:11:36.014Z,96648.56
2023-04-27T09:13:38.183Z,96651.84
2023-04-27T09:15:48.292Z,96656.34
2023-04-27T09:17:54.102Z,96653.13
2023-04-27T09:20:04.297Z,96655.53
2023-04-27T09:22:07.983Z,96651.84
2023-04-27T09:24:10.547Z,96656.22
2023-04-27T09:26:20.039Z,96658.84
2023-04-27T09:28:21.788Z,96660.56
2023-04-27T09:30:24.142Z,96630.53
2023-04-27T09:32:27.043Z,96655.16
2023-04-27T09:34:38.237Z,96648.06
2023-04-27T09:36:40.155Z,96644.81
2023-04-27T09:38:42.393Z,96647.16
2023-04-27T09:40:43.993Z,96650.66
2023-04-27T09:42:46.120Z,96643.06
2023-04-27T09:44:48.135Z,96648.63
2023-04-27T09:46:52.786Z,96654.41
2023-04-27T09:48:56.546Z,96647.72
2023-04-27T09:50:57.929Z,96637.06
2023-04-27T09:52:59.427Z,96647.78
2023-04-27T09:55:03.544Z,96642.88
2023-04-27T09:57:19.054Z,96649.03
2023-04-27T09:59:41.446Z,96646.75
2023-04-27T10:01:47.111Z,96648.19
2023-04-27T10:04:04.237Z,96636.25
2023-04-27T10:06:46.832Z,96645.25
2023-04-27T10:08:50.524Z,96643.06
2023-04-27T10:10:53.329Z,96645.34
2023-04-27T10:13:00.908Z,96652.31
2023-04-27T10:15:13.092Z,96648.19
2023-04-27T10:17:15.184Z,96647.38
2023-04-27T10:19:18.625Z,96645.31
2023-04-27T10:21:20.572Z,96644.09
2023-04-27T10:23:25.850Z,96642.03
2023-04-27T10:25:29.593Z,96639.16
2023-04-27T10:27:39.134Z,96572.03
2023-04-27T10:29:42.776Z,96650.63
2023-04-27T10:31:44.968Z,96643.66
2023-04-27T10:33:47.182Z,96636.66
2023-04-27T10:35:57.313Z,96629.81
2023-04-27T10:38:05.996Z,96640.78
2023-04-27T10:40:10.143Z,96628.03
2023-04-27T10:42:11.982Z,96635.22
2023-04-27T10:44:14.035Z,96628.00
2023-04-27T10:46:16.411Z,96639.13
2023-04-27T10:48:17.994Z,96627.00
2023-04-27T10:50:19.564Z,96626.59
2023-04-27T10:52:22.929Z,96636.47
2023-04-27T10:54:28.049Z,96633.78
2023-04-27T10:56:29.587Z,96629.66
2023-04-27T10:58:41.488Z,96630.28
2023-04-27T11:00:49.470Z,96633.34
2023-04-27T11:02:51.751Z,96640.16
2023-04-27T11:04:53.332Z,96632.09
2023-04-27T11:06:54.878Z,96629.53
2023-04-27T11:08:57.757Z,96634.41
2023-04-27T11:10:59.256Z,96624.63
2023-04-27T11:13:07.496Z,96627.59
2023-04-27T11:15:09.962Z,96627.09
2023-04-27T11:17:11.617Z,96621.78
2023-04-27T11:19:14.087Z,96629.09
2023-04-27T11:21:17.520Z,96625.03
2023-04-27T11:23:26.304Z,96625.59
2023-04-27T11:25:29.459Z,96627.03
2023-04-27T11:27:37.818Z,96626.47
2023-04-27T11:29:39.797Z,96613.03
2023-04-27T11:31:42.816Z,96620.31
2023-04-27T11:33:48.299Z,96627.41
2023-04-27T11:35:49.856Z,96629.25
2023-04-27T11:37:57.529Z,96624.81
2023-04-27T11:40:00.570Z,96632.63
2023-04-27T11:42:17.295Z,96625.44
2023-04-27T11:44:19.077Z,96626.03
2023-04-27T11:46:20.735Z,96597.69
2023-04-27T11:48:23.554Z,96627.38
2023-04-27T11:50:25.774Z,96610.19
2023-04-27T11:52:28.555Z,96619.06
2023-04-27T11:54:30.114Z,96608.94
2023-04-27T11:56:35.728Z,96605.25
2023-04-27T11:58:39.790Z,96606.47
2023-04-27T12:00:41.584Z,96602.94
2023-04-27T12:02:44.140Z,96598.69
2023-04-27T12:04:46.194Z,96603.03
2023-04-27T12:06:48.024Z,96589.22
2023-04-27T12:08:49.525Z,96596.75
2023-04-27T12:10:51.515Z,96601.84
2023-04-27T12:12:53.312Z,96593.19
2023-04-27T12:14:56.302Z,96595.25
2023-04-27T12:16:57.866Z,96590.63
2023-04-27T12:18:59.342Z,96595.66
2023-04-27T12:21:03.001Z,96590.72
2023-04-27T12:23:05.064Z,96592.53
2023-04-27T12:25:07.125Z,96588.56
2023-04-27T12:27:08.712Z,96590.31
2023-04-27T12:29:10.226Z,96587.59
2023-04-27T12:31:15.763Z,96584.88
2023-04-27T12:33:17.798Z,96594.78
2023-04-27T12:35:19.526Z,96590.63
2023-04-27T12:37:20.987Z,96592.31
2023-04-27T12:39:23.768Z,96597.25
2023-04-27T12:41:25.365Z,96593.28
2023-04-27T12:43:27.026Z,96595.13
2023-04-27T12:45:28.546Z,96587.56
2023-04-27T12:49:35.848Z,96593.41
2023-04-27T12:51:37.949Z,96576.94
2023-04-27T12:53:39.490Z,96556.41
2023-04-27T12:55:41.027Z,96582.38
2023-04-27T12:57:42.520Z,96577.19
2023-04-27T12:59:44.143Z,96562.91
2023-04-27T13:01:45.788Z,96578.78
2023-04-27T13:03:48.925Z,96580.44
2023-04-27T13:05:50.461Z,96570.06
2023-04-27T13:07:52.245Z,96570.16
2023-04-27T13:09:54.021Z,96564.66
2023-04-27T13:11:55.556Z,96561.13
2023-04-27T13:13:57.091Z,96562.41
2023-04-27T13:15:58.611Z,96561.66
2023-04-27T13:18:00.144Z,96571.06
2023-04-27T13:20:03.166Z,96562.16
2023-04-27T13:22:04.655Z,96567.06
2023-04-27T13:24:07.391Z,96576.00
2023-04-27T13:26:09.260Z,96564.50
2023-04-27T13:28:10.798Z,96578.22
2023-04-27T13:30:12.795Z,96577.03
2023-04-27T13:32:14.276Z,96566.59
2023-04-27T13:34:16.375Z,96569.81
2023-04-27T13:36:19.537Z,96567.72
2023-04-27T13:38:21.334Z,96562.34
2023-04-27T13:40:23.037Z,96568.63
2023-04-27T13:42:24.499Z,96562.75
2023-04-27T13:44:26.165Z,96553.88
2023-04-27T13:46:27.797Z,96559.34
2023-04-27T13:48:30.128Z,96564.78
2023-04-27T13:50:31.698Z,96554.63
2023-04-27T13:52:35.151Z,96553.97
2023-04-27T13:54:36.633Z,96530.78
2023-04-27T13:56:38.101Z,96560.44
2023-04-27T13:58:39.652Z,96557.00
2023-04-27T14:00:41.171Z,96550.13
2023-04-27T14:02:42.976Z,96560.97
2023-04-27T14:04:44.601Z,96557.75
2023-04-27T14:06:46.110Z,96554.47
2023-04-27T14:08:48.923Z,96556.97
2023-04-27T14:10:50.481Z,96542.13
2023-04-27T14:12:52.085Z,96552.13
2023-04-27T14:14:53.535Z,96549.22
2023-04-27T14:16:55.279Z,96542.47
2023-04-27T14:18:57.028Z,96549.03
2023-04-27T14:20:58.582Z,96552.28
2023-04-27T14:23:00.547Z,96549.13
2023-04-27T14:25:03.700Z,96551.72
2023-04-27T14:27:06.390Z,96545.81
2023-04-27T14:29:07.942Z,96549.44
2023-04-27T14:31:09.612Z,96552.47
2023-04-27T14:33:11.226Z,96550.56
2023-04-27T14:35:12.794Z,96553.72
2023-04-27T14:37:14.618Z,96557.50
2023-04-27T14:39:16.849Z,96544.69
2023-04-27T14:41:20.170Z,96553.28
2023-04-27T14:43:21.630Z,96558.53
2023-04-27T14:45:24.230Z,96555.97
2023-04-27T14:47:26.220Z,96546.38
2023-04-27T14:49:27.760Z,96547.28
2023-04-27T14:51:29.382Z,96555.72
2023-04-27T14:53:30.889Z,96545.31
2023-04-27T14:55:33.619Z,96553.63
2023-04-27T14:57:36.562Z,96552.63
2023-04-27T14:59:38.052Z,96552.44
2023-04-27T15:01:39.587Z,96559.28
2023-04-27T15:03:41.452Z,96552.06
2023-04-27T15:05:43.372Z,96554.50
2023-04-27T15:07:44.890Z,96552.00
2023-04-27T15:09:46.850Z,96555.41
2023-04-27T15:11:48.355Z,96561.47
2023-04-27T15:13:51.796Z,96559.97
2023-04-27T15:15:54.426Z,96556.41
2023-04-27T15:17:56.959Z,96542.28
2023-04-27T15:19:58.560Z,96547.28
2023-04-27T15:22:00.073Z,96556.53
2023-04-27T15:24:03.950Z,96556.75
2023-04-27T15:26:05.540Z,96547.09
2023-04-27T15:28:07.068Z,96544.53
2023-04-27T15:30:10.710Z,96544.75
2023-04-27T15:32:13.084Z,96532.97
2023-04-27T15:34:15.386Z,96541.34
2023-04-27T15:36:16.950Z,96537.94
2023-04-27T15:38:19.663Z,96537.66
2023-04-27T15:40:21.453Z,96534.63
2023-04-27T15:42:23.039Z,96538.28
2023-04-27T15:44:25.113Z,96544.94
2023-04-27T15:46:28.781Z,96535.56
2023-04-27T15:48:30.102Z,96537.03
2023-04-27T15:50:32.574Z,96530.81
2023-04-27T15:52:34.320Z,96532.97
2023-04-27T15:54:35.777Z,96535.19
2023-04-27T15:56:38.132Z,96520.88
2023-04-27T15:58:40.351Z,96521.31
2023-04-27T16:00:41.987Z,96517.78
2023-04-27T16:02:44.943Z,96523.75
2023-04-27T16:04:48.533Z,96519.34
2023-04-27T16:06:50.029Z,96518.06
2023-04-27T16:08:51.514Z,96518.28
2023-04-27T16:10:53.072Z,96515.41
2023-04-27T16:12:56.352Z,96508.09
2023-04-27T16:14:57.854Z,96508.59
2023-04-27T16:16:59.472Z,96505.09
2023-04-27T16:21:29.234Z,96487.69
2023-04-27T16:23:30.741Z,96498.50
2023-04-27T16:25:32.327Z,96496.69
2023-04-27T16:27:33.789Z,96485.41
2023-04-27T16:29:35.298Z,96494.56
2023-04-27T16:31:36.822Z,96497.28
2023-04-27T16:33:38.306Z,96495.84
2023-04-27T16:35:41.181Z,96495.91
2023-04-27T16:37:42.695Z,96488.44
2023-04-27T16:39:44.178Z,96495.81
2023-04-27T16:41:45.743Z,96492.50
2023-04-27T16:43:47.372Z,96490.53
2023-04-27T16:45:48.830Z,96504.00
2023-04-27T16:47:50.341Z,96501.00
2023-04-27T16:49:51.929Z,96490.09
2023-04-27T16:51:54.770Z,96499.03
2023-04-27T16:53:57.207Z,96499.03
2023-04-27T16:55:59.562Z,96489.88
2023-04-27T16:58:01.222Z,96494.09
2023-04-27T17:00:03.127Z,96485.19
2023-04-27T17:02:20.896Z,96487.97
2023-04-27T17:04:25.907Z,96494.13
2023-04-27T17:06:27.890Z,96488.31
2023-04-27T17:08:30.718Z,96491.72
2023-04-27T17:10:32.615Z,96493.94
2023-04-27T17:12:35.111Z,96474.88
2023-04-27T17:14:36.775Z,96480.09
2023-04-27T17:16:38.268Z,96485.50
2023-04-27T17:18:39.835Z,96480.22
2023-04-27T17:20:42.380Z,96477.31
2023-04-27T17:22:43.940Z,96490.66
2023-04-27T17:24:46.766Z,96492.81
2023-04-27T17:26:48.528Z,96495.13
2023-04-27T17:28:50.879Z,96494.59
2023-04-27T17:30:52.384Z,96498.63
2023-04-27T17:32:54.060Z,96501.06
2023-04-27T17:34:55.565Z,96492.88
2023-04-27T17:36:57.095Z,96500.53
2023-04-27T17:38:58.588Z,96495.56
2023-04-27T17:41:01.466Z,96481.50
2023-04-27T17:43:03.041Z,96481.84
2023-04-27T17:45:07.386Z,96486.75
2023-04-27T17:47:09.279Z,96486.09
2023-04-27T17:49:10.804Z,96483.22
2023-04-27T17:51:12.341Z,96484.69
2023-04-27T17:53:13.802Z,96487.56
2023-04-27T17:55:15.402Z,96496.50
2023-04-27T17:57:18.437Z,96489.97
2023-04-27T17:59:19.935Z,96492.75
2023-04-27T18:01:21.478Z,96493.09
2023-04-27T18:03:23.250Z,96483.59
2023-04-27T18:05:25.005Z,96485.03
2023-04-27T18:07:26.641Z,96491.50
2023-04-27T18:09:29.500Z,96484.81
2023-04-27T18:11:32.869Z,96480.19
2023-04-27T18:13:35.729Z,96482.06
2023-04-27T18:15:37.504Z,96505.72
2023-04-27T18:17:39.040Z,96505.22
2023-04-27T18:19:40.576Z,96513.00
2023-04-27T18:21:42.274Z,96513.53
2023-04-27T18:23:43.809Z,96504.16
2023-04-27T18:25:45.550Z,96494.69
2023-04-27T18:27:47.018Z,96512.28
2023-04-27T18:29:50.420Z,96511.78
2023-04-27T18:31:52.353Z,96504.06
2023-04-27T18:33:54.216Z,96506.53
2023-04-27T18:35:55.678Z,96505.34
2023-04-27T18:37:57.190Z,96494.84
2023-04-27T18:39:59.638Z,96498.03
2023-04-27T18:42:04.220Z,96507.56
2023-04-27T18:44:06.067Z,96503.56
2023-04-27T18:46:09.267Z,96497.28
2023-04-27T18:48:10.847Z,96494.53
2023-04-27T18:50:12.350Z,96496.84
2023-04-27T18:52:13.860Z,96496.41
2023-04-27T18:54:15.445Z,96499.25
2023-04-27T18:56:17.269Z,96506.38
2023-04-27T18:58:21.489Z,96503.72
2023-04-27T19:00:23.233Z,96506.31
2023-04-27T19:02:26.190Z,96511.75
2023-04-27T19:04:27.887Z,96507.69
2023-04-27T19:06:29.531Z,96514.91
2023-04-27T19:08:33.054Z,96514.50
2023-04-27T19:10:34.513Z,96518.63
2023-04-27T19:12:36.065Z,96515.53
2023-04-27T19:14:37.606Z,96520.94
2023-04-27T19:16:39.146Z,96517.88
2023-04-27T19:18:42.026Z,96520.97
2023-04-27T19:20:43.694Z,96522.63
2023-04-27T19:22:45.271Z,96522.19
2023-04-27T19:24:47.176Z,96518.28
2023-04-27T19:26:48.714Z,96520.97
2023-04-27T19:28:50.467Z,96517.25
2023-04-27T19:30:51.989Z,96514.38
2023-04-27T19:32:53.600Z,96515.81
2023-04-27T19:34:57.605Z,96508.22
2023-04-27T19:36:59.104Z,96501.84
2023-04-27T19:39:00.668Z,96511.31
2023-04-27T19:41:02.142Z,96504.94
2023-04-27T19:43:03.743Z,96495.06
2023-04-27T19:45:06.326Z,96498.38
2023-04-27T19:47:08.044Z,96501.44
2023-04-27T19:49:09.564Z,96498.78
2023-04-27T19:51:12.613Z,96504.94
2023-04-27T19:53:14.098Z,96505.75
2023-04-27T19:55:15.924Z,96508.88
2023-04-27T19:57:17.527Z,96502.88
2023-04-27T19:59:19.006Z,96508.22
2023-04-27T20:01:20.640Z,96501.66
2023-04-27T20:03:22.371Z,96507.81
2023-04-27T20:05:24.593Z,96503.91
2023-04-27T20:07:27.838Z,96500.41
2023-04-27T20:09:29.326Z,96507.41
2023-04-27T20:11:30.828Z,96509.88
2023-04-27T20:13:32.616Z,96507.81
2023-04-27T20:15:34.150Z,96501.84
2023-04-27T20:17:35.741Z,96501.25
2023-04-27T20:19:37.310Z,96495.88
2023-04-27T20:21:38.832Z,96503.28
2023-04-27T20:23:41.688Z,96503.91
2023-04-27T20:25:43.176Z,96496.91
2023-04-27T20:27:44.786Z,96500.00
2023-04-27T20:29:46.273Z,96498.56
2023-04-27T20:31:47.933Z,96501.44
2023-04-27T20:33:49.433Z,96499.56
2023-04-27T20:35:50.948Z,96492.16
2023-04-27T20:37:52.456Z,96495.88
2023-04-27T20:39:55.284Z,96486.22
2023-04-27T20:41:56.862Z,96500.81
2023-04-27T20:43:58.329Z,96492.56
2023-04-27T20:45:59.876Z,96495.44
2023-04-27T20:48:01.602Z,96488.47
2023-04-27T20:50:03.661Z,96487.81
2023-04-27T20:52:05.258Z,96494.63
2023-04-27T20:54:06.913Z,96488.22
2023-04-27T20:56:09.782Z,96483.69
2023-04-27T20:58:11.259Z,96482.88
2023-04-27T21:00:13.755Z,96471.97
2023-04-27T21:02:15.272Z,96487.16
2023-04-27T21:04:17.088Z,96478.13
2023-04-27T21:06:18.921Z,96462.88
2023-04-27T21:08:20.380Z,96475.22
2023-04-27T21:10:21.894Z,96471.75
2023-04-27T21:12:25.108Z,96469.25
2023-04-27T21:14:26.610Z,96460.84
2023-04-27T21:16:28.184Z,96459.22
2023-04-27T21:18:30.922Z,96454.88
2023-04-27T21:20:32.627Z,96456.34
2023-04-27T21:22:34.117Z,96455.69
2023-04-27T21:24:35.651Z,96457.53
2023-04-27T21:26:37.179Z,96456.69
2023-04-27T21:28:40.481Z,96462.03
2023-04-27T21:30:42.012Z,96454.63
2023-04-27T21:32:43.713Z,96454.63
2023-04-27T21:34:45.263Z,96455.44
2023-04-27T21:36:46.780Z,96461.16
2023-04-27T21:38:48.253Z,96460.97
2023-04-27T21:40:49.777Z,96450.88
2023-04-27T21:42:51.577Z,96444.31
2023-04-27T21:44:55.970Z,96448.44
2023-04-27T21:46:57.539Z,96436.50
2023-04-27T21:48:59.009Z,96434.88
2023-04-27T21:51:00.708Z,96436.91
2023-04-27T21:53:02.214Z,96433.63
2023-04-27T21:55:04.034Z,96435.66
2023-04-27T21:57:05.565Z,96433.59
2023-04-27T21:59:07.065Z,96426.19
2023-04-27T22:01:10.193Z,96407.84
2023-04-27T22:03:11.879Z,96422.44
2023-04-27T22:05:13.664Z,96426.53
2023-04-27T22:07:15.516Z,96428.97
2023-04-27T22:09:24.689Z,96410.88
2023-04-27T22:14:04.193Z,96422.97
2023-04-27T22:16:06.602Z,96433.03
2023-04-27T22:18:10.317Z,96431.75
2023-04-27T22:20:15.558Z,96433.03
2023-04-27T22:22:21.433Z,96429.50
2023-04-27T22:24:23.621Z,96432.75
2023-04-27T22:26:28.619Z,96427.81
2023-04-27T22:28:35.401Z,96438.88
2023-04-27T22:30:42.779Z,96433.31
2023-04-27T22:32:45.064Z,96436.00
2023-04-27T22:34:49.247Z,96438.84
2023-04-27T22:37:01.275Z,96430.03
2023-04-27T22:39:17.609Z,96431.88
2023-04-27T22:41:20.525Z,96435.78
2023-04-27T22:43:22.867Z,96430.84
2023-04-27T22:45:25.584Z,96439.47
2023-04-27T22:47:29.952Z,96434.56
2023-04-27T22:49:32.434Z,96431.88
2023-04-27T22:51:42.050Z,96443.75
2023-04-27T22:53:44.605Z,96441.44
2023-04-27T22:55:47.539Z,96436.94
2023-04-27T22:57:49.076Z,96438.16
2023-04-27T22:59:50.550Z,96432.38
2023-04-27T23:01:52.310Z,96432.59
2023-04-27T23:03:53.933Z,96427.19
2023-04-27T23:05:55.493Z,96434.00
2023-04-27T23:07:58.339Z,96414.66
2023-04-27T23:09:59.954Z,96413.56
2023-04-27T23:12:01.452Z,96421.75
2023-04-27T23:14:03.561Z,96415.19
2023-04-27T23:16:05.997Z,96429.56
2023-04-27T23:18:07.484Z,96424.63
2023-04-27T23:20:17.291Z,96414.59
2023-04-27T23:22:29.464Z,96417.28
2023-04-27T23:24:32.284Z,96416.84
2023-04-27T23:26:33.736Z,96417.72
2023-04-27T23:28:35.249Z,96403.75
2023-04-27T23:30:36.751Z,96403.53
2023-04-27T23:32:38.398Z,96400.03
2023-04-27T23:34:39.850Z,96391.84
2023-04-27T23:36:41.441Z,96396.97
2023-04-27T23:38:42.995Z,96401.50
2023-04-27T23:40:45.811Z,96399.06
2023-04-27T23:42:48.196Z,96393.09
2023-04-27T23:44:50.687Z,96394.03
2023-04-27T23:46:52.160Z,96387.25
2023-04-27T23:48:53.618Z,96381.94
2023-04-27T23:51:04.660Z,96381.75
2023-04-27T23:53:06.198Z,96388.09
2023-04-27T23:55:08.661Z,96385.84
2023-04-27T23:57:11.854Z,96368.41
2023-04-27T23:59:13.631Z,96364.31
